createdAt,value
2018-01-10T00:00:17.348Z,0.00
2018-01-10T00:01:17.321Z,0.00
2018-01-10T00:02:17.301Z,0.00
2018-01-10T00:03:17.280Z,0.00
2018-01-10T00:04:17.262Z,0.00
2018-01-10T00:05:17.240Z,0.00
2018-01-10T00:06:17.220Z,0.00
2018-01-10T00:07:17.199Z,0.00
2018-01-10T00:08:17.176Z,0.00
2018-01-10T00:09:17.160Z,0.00
2018-01-10T00:10:17.146Z,0.00
2018-01-10T00:11:17.120Z,0.00
2018-01-10T00:12:17.099Z,0.00
2018-01-10T00:13:17.070Z,0.00
2018-01-10T00:14:17.055Z,0.00
2018-01-10T00:15:17.031Z,0.00
2018-01-10T00:16:17.010Z,0.00
2018-01-10T00:17:16.993Z,0.00
2018-01-10T00:18:16.968Z,0.00
2018-01-10T00:19:16.951Z,0.00
2018-01-10T00:20:16.926Z,0.00
2018-01-10T00:21:16.912Z,0.00
2018-01-10T00:22:16.895Z,0.00
2018-01-10T00:23:16.870Z,0.00
2018-01-10T00:24:16.849Z,0.00
2018-01-10T00:25:16.834Z,0.00
2018-01-10T00:26:16.812Z,0.00
2018-01-10T00:27:16.792Z,0.00
2018-01-10T00:28:16.768Z,0.00
2018-01-10T00:29:16.742Z,0.00
2018-01-10T00:30:16.727Z,0.00
2018-01-10T00:31:16.704Z,0.00
2018-01-10T00:32:16.682Z,0.00
2018-01-10T00:33:16.672Z,0.00
2018-01-10T00:34:16.650Z,0.00
2018-01-10T00:35:16.620Z,0.00
2018-01-10T00:36:16.605Z,0.00
2018-01-10T00:37:16.591Z,0.00
2018-01-10T00:38:16.562Z,0.00
2018-01-10T00:39:16.540Z,0.00
2018-01-10T00:40:16.518Z,0.00
2018-01-10T00:41:16.499Z,0.00
2018-01-10T00:42:16.481Z,0.00
2018-01-10T00:43:16.457Z,0.00
2018-01-10T00:44:16.438Z,0.00
2018-01-10T00:45:16.420Z,0.00
2018-01-10T00:46:16.396Z,0.00
2018-01-10T00:47:16.381Z,0.00
2018-01-10T00:48:16.352Z,0.00
2018-01-10T00:49:16.338Z,0.00
2018-01-10T00:50:16.312Z,0.00
2018-01-10T00:51:16.292Z,0.00
2018-01-10T00:52:16.272Z,0.00
2018-01-10T00:53:16.249Z,0.00
2018-01-10T00:54:16.230Z,0.00
2018-01-10T00:55:16.211Z,0.00
2018-01-10T00:56:16.192Z,0.00
2018-01-10T00:57:16.166Z,0.00
2018-01-10T00:58:16.151Z,0.00
2018-01-10T00:59:16.128Z,0.00
2018-01-10T01:00:16.107Z,0.00
2018-01-10T01:01:16.092Z,0.00
2018-01-10T01:02:16.069Z,0.00
2018-01-10T01:03:16.042Z,0.00
2018-01-10T01:04:16.020Z,0.00
2018-01-10T01:05:16.000Z,0.00
2018-01-10T01:06:15.980Z,0.00
2018-01-10T01:07:15.956Z,0.00
2018-01-10T01:08:15.936Z,0.00
2018-01-10T01:09:15.918Z,0.00
2018-01-10T01:10:15.899Z,0.00
2018-01-10T01:11:15.877Z,0.00
2018-01-10T01:12:15.853Z,0.00
2018-01-10T01:13:15.833Z,0.00
2018-01-10T01:14:15.821Z,0.00
2018-01-10T01:15:15.794Z,0.00
2018-01-10T01:16:15.771Z,0.00
2018-01-10T01:17:15.750Z,0.00
2018-01-10T01:18:15.730Z,0.00
2018-01-10T01:19:15.710Z,0.00
2018-01-10T01:20:15.690Z,0.00
2018-01-10T01:21:15.669Z,0.00
2018-01-10T01:22:15.649Z,0.00
2018-01-10T01:23:15.631Z,0.00
2018-01-10T01:24:15.609Z,0.00
2018-01-10T01:25:15.586Z,0.00
2018-01-10T01:26:15.580Z,0.00
2018-01-10T01:27:15.551Z,0.00
2018-01-10T01:28:15.524Z,0.00
2018-01-10T01:29:15.510Z,0.00
2018-01-10T01:30:15.486Z,0.00
2018-01-10T01:31:15.469Z,0.00
2018-01-10T01:32:15.441Z,0.00
2018-01-10T01:33:15.420Z,0.00
2018-01-10T01:34:15.410Z,0.00
2018-01-10T01:35:15.380Z,0.00
2018-01-10T01:36:15.360Z,0.00
2018-01-10T01:37:15.341Z,0.00
2018-01-10T01:38:15.319Z,0.00
2018-01-10T01:39:15.298Z,0.00
2018-01-10T01:40:15.276Z,0.00
2018-01-10T01:41:15.259Z,0.00
2018-01-10T01:42:15.242Z,0.00
2018-01-10T01:43:15.216Z,0.00
2018-01-10T01:44:15.191Z,0.00
2018-01-10T01:45:15.171Z,0.00
2018-01-10T01:46:15.156Z,0.00
2018-01-10T01:47:15.142Z,0.00
2018-01-10T01:48:15.111Z,0.00
2018-01-10T01:49:15.094Z,0.00
2018-01-10T01:50:15.070Z,0.00
2018-01-10T01:51:15.049Z,0.00
2018-01-10T01:52:15.030Z,0.00
2018-01-10T01:53:15.010Z,0.00
2018-01-10T01:54:14.986Z,0.00
2018-01-10T01:55:14.969Z,0.00
2018-01-10T01:56:14.947Z,0.00
2018-01-10T01:57:14.925Z,0.00
2018-01-10T01:58:14.909Z,0.00
2018-01-10T01:59:14.893Z,0.00
2018-01-10T02:00:14.867Z,0.00
2018-01-10T02:01:14.840Z,0.00
2018-01-10T02:02:14.828Z,0.00
2018-01-10T02:03:14.804Z,0.00
2018-01-10T02:04:14.781Z,0.00
2018-01-10T02:05:14.760Z,0.00
2018-01-10T02:06:14.739Z,0.00
2018-01-10T02:07:14.718Z,0.00
2018-01-10T02:08:14.701Z,0.00
2018-01-10T02:09:14.682Z,0.00
2018-01-10T02:10:14.659Z,0.00
2018-01-10T02:11:14.638Z,0.00
2018-01-10T02:12:14.622Z,0.00
2018-01-10T02:13:14.596Z,0.00
2018-01-10T02:14:14.575Z,0.00
2018-01-10T02:15:14.559Z,0.00
2018-01-10T02:16:14.540Z,0.00
2018-01-10T02:17:14.520Z,0.00
2018-01-10T02:18:14.494Z,0.00
2018-01-10T02:19:14.473Z,0.00
2018-01-10T02:20:14.459Z,0.00
2018-01-10T02:21:14.432Z,0.00
2018-01-10T02:22:14.413Z,0.00
2018-01-10T02:23:14.392Z,0.00
2018-01-10T02:24:14.370Z,0.00
2018-01-10T02:25:14.348Z,0.00
2018-01-10T02:26:14.335Z,0.00
2018-01-10T02:27:14.314Z,0.00
2018-01-10T02:28:14.296Z,0.00
2018-01-10T02:29:14.269Z,0.00
2018-01-10T02:30:14.246Z,0.00
2018-01-10T02:31:14.230Z,0.00
2018-01-10T02:32:14.207Z,0.00
2018-01-10T02:33:14.190Z,0.00
2018-01-10T02:34:14.170Z,0.00
2018-01-10T02:35:14.144Z,0.00
2018-01-10T02:36:14.129Z,0.00
2018-01-10T02:37:14.109Z,0.00
2018-01-10T02:38:14.081Z,0.00
2018-01-10T02:39:14.061Z,0.00
2018-01-10T02:40:14.039Z,0.00
2018-01-10T02:41:14.019Z,0.00
2018-01-10T02:42:14.010Z,0.00
2018-01-10T02:43:13.980Z,0.00
2018-01-10T02:44:13.960Z,0.00
2018-01-10T02:45:13.992Z,0.00
2018-01-10T02:46:13.920Z,0.00
2018-01-10T02:47:13.916Z,0.00
2018-01-10T02:48:13.880Z,0.00
2018-01-10T02:49:13.862Z,0.00
2018-01-10T02:50:13.891Z,0.00
2018-01-10T02:51:13.819Z,0.00
2018-01-10T02:52:13.795Z,0.00
2018-01-10T02:53:13.776Z,0.00
2018-01-10T02:54:13.758Z,0.00
2018-01-10T02:55:13.733Z,0.00
2018-01-10T02:56:13.711Z,0.00
2018-01-10T02:57:13.693Z,0.00
2018-01-10T02:58:13.673Z,0.00
2018-01-10T02:59:13.651Z,0.00
2018-01-10T03:00:13.629Z,0.00
2018-01-10T03:01:13.608Z,0.00
2018-01-10T03:02:13.589Z,0.00
2018-01-10T03:03:13.570Z,0.00
2018-01-10T03:04:13.549Z,0.00
2018-01-10T03:05:13.529Z,0.00
2018-01-10T03:06:13.511Z,0.00
2018-01-10T03:07:13.487Z,0.00
2018-01-10T03:08:13.469Z,0.00
2018-01-10T03:09:13.450Z,0.00
2018-01-10T03:10:13.425Z,0.00
2018-01-10T03:11:13.404Z,0.00
2018-01-10T03:12:13.382Z,0.00
2018-01-10T03:13:13.362Z,0.00
2018-01-10T03:14:13.353Z,0.00
2018-01-10T03:15:13.327Z,0.00
2018-01-10T03:16:13.303Z,0.00
2018-01-10T03:17:13.281Z,0.00
2018-01-10T03:18:13.260Z,0.00
2018-01-10T03:19:13.247Z,0.00
2018-01-10T03:20:13.224Z,0.00
2018-01-10T03:21:13.203Z,0.00
2018-01-10T03:22:13.180Z,0.00
2018-01-10T03:23:13.161Z,0.00
2018-01-10T03:24:13.142Z,0.00
2018-01-10T03:25:13.116Z,0.00
2018-01-10T03:26:13.100Z,0.00
2018-01-10T03:27:13.081Z,0.00
2018-01-10T03:28:13.054Z,0.00
2018-01-10T03:29:13.038Z,0.00
2018-01-10T03:30:13.018Z,0.00
2018-01-10T03:31:12.998Z,0.00
2018-01-10T03:32:12.982Z,0.00
2018-01-10T03:33:12.962Z,0.00
2018-01-10T03:34:12.940Z,0.00
2018-01-10T03:35:12.921Z,0.00
2018-01-10T03:36:12.897Z,0.00
2018-01-10T03:37:12.879Z,0.00
2018-01-10T03:38:12.853Z,0.00
2018-01-10T03:39:12.840Z,0.00
2018-01-10T03:40:12.810Z,0.00
2018-01-10T03:41:12.801Z,0.00
2018-01-10T03:42:12.770Z,0.00
2018-01-10T03:43:12.760Z,0.00
2018-01-10T03:44:12.730Z,0.00
2018-01-10T03:45:12.709Z,0.00
2018-01-10T03:46:12.690Z,0.00
2018-01-10T03:47:12.721Z,0.00
2018-01-10T03:48:12.650Z,0.00
2018-01-10T03:49:12.678Z,0.00
2018-01-10T03:50:12.611Z,0.00
2018-01-10T03:51:12.689Z,0.00
2018-01-10T03:52:12.570Z,0.00
2018-01-10T03:53:12.644Z,0.00
2018-01-10T03:54:12.525Z,0.00
2018-01-10T03:55:12.509Z,0.00
2018-01-10T03:56:12.490Z,0.00
2018-01-10T03:57:12.470Z,0.00
2018-01-10T03:58:12.443Z,0.00
2018-01-10T03:59:12.526Z,0.00
2018-01-10T04:00:12.401Z,0.00
2018-01-10T04:01:12.382Z,0.00
2018-01-10T04:02:12.360Z,0.00
2018-01-10T04:03:12.400Z,0.00
2018-01-10T04:04:12.319Z,0.00
2018-01-10T04:05:12.341Z,0.00
2018-01-10T04:06:12.280Z,0.00
2018-01-10T04:07:12.266Z,0.00
2018-01-10T04:08:12.244Z,0.00
2018-01-10T04:09:12.303Z,0.00
2018-01-10T04:10:12.201Z,0.00
2018-01-10T04:11:12.212Z,0.00
2018-01-10T04:12:12.160Z,0.00
2018-01-10T04:13:12.138Z,0.00
2018-01-10T04:14:12.118Z,0.00
2018-01-10T04:15:12.099Z,0.00
2018-01-10T04:16:12.076Z,0.00
2018-01-10T04:17:12.060Z,0.00
2018-01-10T04:18:12.042Z,0.00
2018-01-10T04:19:12.022Z,0.00
2018-01-10T04:20:12.003Z,0.00
2018-01-10T04:21:11.980Z,0.00
2018-01-10T04:22:11.958Z,0.00
2018-01-10T04:23:11.941Z,0.00
2018-01-10T04:24:11.920Z,0.00
2018-01-10T04:25:11.903Z,0.00
2018-01-10T04:26:11.879Z,0.00
2018-01-10T04:27:11.856Z,0.00
2018-01-10T04:28:11.837Z,0.00
2018-01-10T04:29:11.819Z,0.00
2018-01-10T04:30:11.800Z,0.00
2018-01-10T04:31:11.779Z,0.00
2018-01-10T04:32:11.754Z,0.00
2018-01-10T04:33:11.736Z,0.00
2018-01-10T04:34:11.718Z,0.00
2018-01-10T04:35:11.698Z,0.00
2018-01-10T04:36:11.669Z,0.00
2018-01-10T04:37:11.649Z,0.00
2018-01-10T04:38:11.631Z,0.00
2018-01-10T04:39:11.611Z,0.00
2018-01-10T04:40:11.590Z,0.00
2018-01-10T04:41:11.569Z,0.00
2018-01-10T04:42:11.549Z,0.00
2018-01-10T04:43:11.531Z,0.00
2018-01-10T04:44:11.508Z,0.00
2018-01-10T04:45:11.491Z,0.00
2018-01-10T04:46:11.472Z,0.00
2018-01-10T04:47:11.453Z,0.00
2018-01-10T04:48:11.432Z,0.00
2018-01-10T04:49:11.411Z,0.00
2018-01-10T04:50:11.389Z,0.00
2018-01-10T04:51:11.373Z,0.00
2018-01-10T04:52:11.352Z,0.00
2018-01-10T04:53:11.331Z,0.00
2018-01-10T04:54:11.303Z,0.00
2018-01-10T04:55:11.288Z,0.00
2018-01-10T04:56:11.261Z,0.00
2018-01-10T04:57:11.289Z,0.00
2018-01-10T04:58:11.224Z,0.00
2018-01-10T04:59:11.200Z,0.00
2018-01-10T05:00:11.180Z,0.00
2018-01-10T05:01:11.202Z,0.00
2018-01-10T05:02:11.141Z,0.00
2018-01-10T05:03:11.169Z,0.00
2018-01-10T05:04:11.097Z,0.00
2018-01-10T05:05:11.085Z,0.00
2018-01-10T05:06:11.059Z,0.00
2018-01-10T05:07:11.040Z,0.00
2018-01-10T05:08:11.016Z,0.00
2018-01-10T05:09:10.994Z,0.00
2018-01-10T05:10:10.980Z,0.00
2018-01-10T05:11:11.050Z,0.00
2018-01-10T05:12:10.940Z,0.00
2018-01-10T05:13:10.915Z,0.00
2018-01-10T05:14:10.900Z,0.00
2018-01-10T05:15:10.876Z,0.00
2018-01-10T05:16:10.860Z,0.00
2018-01-10T05:17:10.837Z,0.00
2018-01-10T05:18:10.810Z,0.00
2018-01-10T05:19:10.916Z,0.00
2018-01-10T05:20:10.771Z,0.00
2018-01-10T05:21:10.750Z,0.00
2018-01-10T05:22:10.734Z,0.00
2018-01-10T05:23:10.709Z,0.00
2018-01-10T05:24:10.687Z,0.00
2018-01-10T05:25:10.671Z,0.00
2018-01-10T05:26:10.649Z,0.00
2018-01-10T05:27:10.634Z,0.00
2018-01-10T05:28:10.610Z,0.00
2018-01-10T05:29:10.592Z,0.00
2018-01-10T05:30:10.600Z,0.00
2018-01-10T05:31:10.560Z,0.00
2018-01-10T05:32:10.529Z,0.00
2018-01-10T05:33:10.569Z,0.00
2018-01-10T05:34:10.482Z,0.00
2018-01-10T05:35:10.472Z,0.00
2018-01-10T05:36:10.452Z,0.00
2018-01-10T05:37:10.425Z,0.00
2018-01-10T05:38:10.407Z,0.00
2018-01-10T05:39:10.385Z,0.00
2018-01-10T05:40:10.366Z,0.00
2018-01-10T05:41:10.346Z,0.00
2018-01-10T05:42:10.330Z,0.00
2018-01-10T05:43:10.309Z,0.00
2018-01-10T05:44:10.295Z,0.00
2018-01-10T05:45:10.264Z,0.00
2018-01-10T05:46:10.246Z,0.00
2018-01-10T05:47:10.234Z,0.00
2018-01-10T05:48:10.200Z,0.00
2018-01-10T05:49:10.183Z,0.00
2018-01-10T05:50:10.166Z,0.00
2018-01-10T05:51:10.146Z,0.00
2018-01-10T05:52:10.128Z,0.00
2018-01-10T05:53:10.110Z,0.00
2018-01-10T05:54:10.088Z,0.00
2018-01-10T05:55:10.071Z,0.00
2018-01-10T05:56:10.049Z,0.00
2018-01-10T05:57:10.025Z,0.00
2018-01-10T05:58:10.004Z,0.00
2018-01-10T05:59:09.991Z,0.00
2018-01-10T06:00:09.962Z,0.00
2018-01-10T06:01:09.948Z,0.00
2018-01-10T06:02:09.923Z,0.00
2018-01-10T06:03:09.903Z,0.00
2018-01-10T06:04:09.890Z,0.00
2018-01-10T06:05:09.862Z,0.00
2018-01-10T06:06:09.849Z,0.00
2018-01-10T06:07:09.829Z,0.00
2018-01-10T06:08:09.811Z,0.00
2018-01-10T06:09:09.786Z,0.00
2018-01-10T06:10:09.771Z,0.00
2018-01-10T06:11:09.750Z,0.00
2018-01-10T06:12:09.725Z,0.00
2018-01-10T06:13:09.711Z,0.00
2018-01-10T06:14:09.689Z,0.00
2018-01-10T06:15:09.672Z,0.00
2018-01-10T06:16:09.648Z,0.00
2018-01-10T06:17:09.631Z,0.00
2018-01-10T06:18:09.609Z,0.00
2018-01-10T06:19:09.588Z,0.00
2018-01-10T06:20:09.572Z,0.00
2018-01-10T06:21:09.549Z,0.00
2018-01-10T06:22:09.529Z,0.00
2018-01-10T06:23:09.511Z,0.00
2018-01-10T06:24:09.491Z,0.00
2018-01-10T06:25:09.474Z,0.00
2018-01-10T06:26:09.459Z,0.00
2018-01-10T06:27:09.433Z,0.00
2018-01-10T06:28:09.411Z,0.00
2018-01-10T06:29:09.392Z,0.00
2018-01-10T06:30:09.371Z,0.00
2018-01-10T06:31:09.359Z,0.00
2018-01-10T06:32:09.331Z,0.00
2018-01-10T06:33:09.310Z,0.00
2018-01-10T06:34:09.291Z,0.00
2018-01-10T06:35:09.278Z,0.00
2018-01-10T06:36:09.252Z,0.00
2018-01-10T06:37:09.232Z,0.00
2018-01-10T06:38:09.222Z,0.00
2018-01-10T06:39:09.197Z,0.00
2018-01-10T06:40:09.178Z,0.00
2018-01-10T06:41:09.157Z,0.00
2018-01-10T06:42:09.134Z,0.00
2018-01-10T06:43:09.121Z,0.00
2018-01-10T06:44:09.098Z,0.00
2018-01-10T06:45:09.080Z,0.00
2018-01-10T06:46:09.071Z,0.00
2018-01-10T06:47:09.041Z,0.00
2018-01-10T06:48:09.027Z,0.00
2018-01-10T06:49:08.997Z,0.00
2018-01-10T06:50:08.981Z,0.00
2018-01-10T06:51:08.961Z,0.00
2018-01-10T06:52:08.941Z,0.00
2018-01-10T06:53:08.923Z,0.00
2018-01-10T06:54:08.900Z,0.00
2018-01-10T06:55:08.881Z,0.00
2018-01-10T06:56:08.859Z,0.00
2018-01-10T06:57:08.848Z,0.00
2018-01-10T06:58:08.826Z,0.00
2018-01-10T06:59:08.804Z,4.00
2018-01-10T07:00:08.788Z,4.00
2018-01-10T07:01:08.763Z,4.00
2018-01-10T07:02:08.748Z,0.00
2018-01-10T07:03:08.725Z,4.00
2018-01-10T07:04:08.706Z,4.00
2018-01-10T07:05:08.686Z,0.00
2018-01-10T07:06:08.672Z,4.00
2018-01-10T07:07:08.652Z,4.00
2018-01-10T07:08:08.631Z,4.00
2018-01-10T07:09:08.610Z,4.00
2018-01-10T07:10:08.591Z,8.00
2018-01-10T07:11:08.566Z,12.00
2018-01-10T07:12:08.551Z,8.00
2018-01-10T07:13:08.530Z,12.00
2018-01-10T07:14:08.513Z,12.00
2018-01-10T07:15:08.489Z,20.00
2018-01-10T07:16:08.470Z,20.00
2018-01-10T07:17:08.450Z,24.00
2018-01-10T07:18:08.431Z,28.00
2018-01-10T07:19:08.419Z,32.00
2018-01-10T07:20:08.390Z,36.00
2018-01-10T07:21:08.371Z,44.00
2018-01-10T07:22:08.362Z,48.00
2018-01-10T07:23:08.339Z,56.00
2018-01-10T07:24:08.316Z,60.00
2018-01-10T07:25:08.312Z,68.00
2018-01-10T07:26:08.284Z,76.00
2018-01-10T07:27:08.265Z,80.00
2018-01-10T07:28:08.251Z,88.00
2018-01-10T07:29:08.280Z,88.00
2018-01-10T07:30:08.201Z,84.00
2018-01-10T07:31:08.185Z,80.00
2018-01-10T07:32:08.165Z,76.00
2018-01-10T07:33:08.137Z,80.00
2018-01-10T07:34:08.120Z,84.00
2018-01-10T07:35:08.117Z,88.00
2018-01-10T07:36:08.090Z,84.00
2018-01-10T07:37:08.060Z,76.00
2018-01-10T07:38:08.043Z,72.00
2018-01-10T07:39:08.029Z,68.00
2018-01-10T07:40:08.048Z,64.00
2018-01-10T07:41:07.980Z,64.00
2018-01-10T07:42:07.961Z,64.00
2018-01-10T07:43:07.938Z,68.00
2018-01-10T07:44:07.920Z,72.00
2018-01-10T07:45:07.900Z,80.00
2018-01-10T07:46:07.887Z,88.00
2018-01-10T07:47:07.860Z,92.00
2018-01-10T07:48:07.844Z,104.00
2018-01-10T07:49:07.826Z,112.00
2018-01-10T07:50:07.811Z,120.00
2018-01-10T07:51:07.784Z,128.00
2018-01-10T07:52:07.779Z,140.00
2018-01-10T07:53:07.743Z,148.00
2018-01-10T07:54:07.729Z,160.00
2018-01-10T07:55:07.725Z,172.00
2018-01-10T07:56:07.684Z,172.00
2018-01-10T07:57:07.671Z,180.00
2018-01-10T07:58:07.651Z,188.00
2018-01-10T07:59:07.639Z,196.00
2018-01-10T08:00:07.601Z,208.00
2018-01-10T08:01:07.584Z,220.00
2018-01-10T08:02:07.611Z,228.00
2018-01-10T08:03:07.546Z,248.00
2018-01-10T08:04:07.541Z,268.00
2018-01-10T08:05:07.504Z,280.00
2018-01-10T08:06:07.486Z,288.00
2018-01-10T08:07:07.471Z,288.00
2018-01-10T08:08:07.446Z,288.00
2018-01-10T08:09:07.429Z,292.00
2018-01-10T08:10:07.411Z,304.00
2018-01-10T08:11:07.388Z,296.00
2018-01-10T08:12:07.369Z,292.00
2018-01-10T08:13:07.349Z,284.00
2018-01-10T08:14:07.327Z,284.00
2018-01-10T08:15:07.308Z,288.00
2018-01-10T08:16:07.291Z,288.00
2018-01-10T08:17:07.272Z,276.00
2018-01-10T08:18:07.251Z,268.00
2018-01-10T08:19:07.240Z,276.00
2018-01-10T08:20:07.212Z,304.00
2018-01-10T08:21:07.209Z,316.00
2018-01-10T08:22:07.181Z,320.00
2018-01-10T08:23:07.154Z,336.00
2018-01-10T08:24:07.141Z,372.00
2018-01-10T08:25:07.110Z,408.00
2018-01-10T08:26:07.100Z,436.00
2018-01-10T08:27:07.084Z,480.00
2018-01-10T08:28:07.055Z,520.00
2018-01-10T08:29:07.040Z,564.00
2018-01-10T08:30:07.021Z,628.00
2018-01-10T08:31:07.001Z,684.00
2018-01-10T08:32:06.982Z,728.00
2018-01-10T08:33:06.960Z,796.00
2018-01-10T08:34:06.937Z,840.00
2018-01-10T08:35:06.920Z,836.00
2018-01-10T08:36:06.895Z,836.00
2018-01-10T08:37:06.877Z,832.00
2018-01-10T08:38:06.860Z,868.00
2018-01-10T08:39:06.839Z,932.00
2018-01-10T08:40:06.820Z,1000.00
2018-01-10T08:41:06.799Z,1096.00
2018-01-10T08:42:06.780Z,1204.00
2018-01-10T08:43:06.762Z,1252.00
2018-01-10T08:44:06.740Z,1248.00
2018-01-10T08:45:06.725Z,1320.00
2018-01-10T08:46:06.703Z,1272.00
2018-01-10T08:47:06.692Z,1228.00
2018-01-10T08:48:06.666Z,1260.00
2018-01-10T08:49:06.645Z,1172.00
2018-01-10T08:50:06.630Z,1096.00
2018-01-10T08:51:06.606Z,1080.00
2018-01-10T08:52:06.614Z,1068.00
2018-01-10T08:53:06.571Z,1100.00
2018-01-10T08:54:06.555Z,1196.00
2018-01-10T08:55:06.532Z,1212.00
2018-01-10T08:56:06.513Z,1272.00
2018-01-10T08:57:06.486Z,1356.00
2018-01-10T08:58:06.467Z,1440.00
2018-01-10T08:59:06.457Z,1452.00
2018-01-10T09:00:06.430Z,1428.00
2018-01-10T09:01:06.410Z,1392.00
2018-01-10T09:02:06.389Z,1428.00
2018-01-10T09:03:06.370Z,1660.00
2018-01-10T09:04:06.360Z,1908.00
2018-01-10T09:05:06.339Z,2148.00
2018-01-10T09:06:06.320Z,2340.00
2018-01-10T09:07:06.297Z,2288.00
2018-01-10T09:08:06.271Z,2016.00
2018-01-10T09:09:06.259Z,1760.00
2018-01-10T09:10:06.238Z,1532.00
2018-01-10T09:11:06.216Z,1372.00
2018-01-10T09:12:06.201Z,1312.00
2018-01-10T09:13:06.180Z,1368.00
2018-01-10T09:14:06.156Z,1480.00
2018-01-10T09:15:06.140Z,1560.00
2018-01-10T09:16:06.120Z,1620.00
2018-01-10T09:17:06.099Z,1648.00
2018-01-10T09:18:06.077Z,1656.00
2018-01-10T09:19:06.067Z,1604.00
2018-01-10T09:20:06.042Z,1412.00
2018-01-10T09:21:06.022Z,1336.00
2018-01-10T09:22:06.003Z,1312.00
2018-01-10T09:23:05.980Z,1244.00
2018-01-10T09:24:05.961Z,1148.00
2018-01-10T09:25:05.952Z,1088.00
2018-01-10T09:26:05.921Z,960.00
2018-01-10T09:27:05.912Z,876.00
2018-01-10T09:28:05.881Z,784.00
2018-01-10T09:29:05.860Z,708.00
2018-01-10T09:30:05.845Z,664.00
2018-01-10T09:31:05.823Z,652.00
2018-01-10T09:32:05.809Z,624.00
2018-01-10T09:33:05.781Z,604.00
2018-01-10T09:34:05.772Z,588.00
2018-01-10T09:35:05.744Z,564.00
2018-01-10T09:36:05.735Z,548.00
2018-01-10T09:37:05.703Z,512.00
2018-01-10T09:38:05.688Z,464.00
2018-01-10T09:39:05.666Z,428.00
2018-01-10T09:40:05.657Z,416.00
2018-01-10T09:41:05.629Z,404.00
2018-01-10T09:42:05.605Z,400.00
2018-01-10T09:43:05.585Z,400.00
2018-01-10T09:44:05.570Z,392.00
2018-01-10T09:45:05.550Z,384.00
2018-01-10T09:46:05.529Z,368.00
2018-01-10T09:47:05.509Z,356.00
2018-01-10T09:48:05.490Z,340.00
2018-01-10T09:49:05.470Z,332.00
2018-01-10T09:50:05.448Z,328.00
2018-01-10T09:51:05.434Z,328.00
2018-01-10T09:52:05.407Z,332.00
2018-01-10T09:53:05.391Z,348.00
2018-01-10T09:54:05.370Z,364.00
2018-01-10T09:55:05.355Z,380.00
2018-01-10T09:56:05.331Z,404.00
2018-01-10T09:57:05.310Z,432.00
2018-01-10T09:58:05.288Z,468.00
2018-01-10T09:59:05.269Z,512.00
2018-01-10T10:00:05.255Z,556.00
2018-01-10T10:01:05.230Z,584.00
2018-01-10T10:02:05.214Z,592.00
2018-01-10T10:03:05.192Z,592.00
2018-01-10T10:04:05.178Z,588.00
2018-01-10T10:05:05.151Z,592.00
2018-01-10T10:06:05.130Z,596.00
2018-01-10T10:07:05.114Z,604.00
2018-01-10T10:08:05.093Z,620.00
2018-01-10T10:09:05.076Z,636.00
2018-01-10T10:10:05.054Z,644.00
2018-01-10T10:11:05.036Z,644.00
2018-01-10T10:12:05.016Z,648.00
2018-01-10T10:13:05.001Z,664.00
2018-01-10T10:14:04.980Z,692.00
2018-01-10T10:15:04.957Z,740.00
2018-01-10T10:16:04.939Z,804.00
2018-01-10T10:17:04.924Z,884.00
2018-01-10T10:18:04.903Z,960.00
2018-01-10T10:19:04.881Z,1036.00
2018-01-10T10:20:04.869Z,1108.00
2018-01-10T10:21:04.848Z,1224.00
2018-01-10T10:22:04.822Z,1344.00
2018-01-10T10:23:04.821Z,1528.00
2018-01-10T10:24:04.784Z,1568.00
2018-01-10T10:25:04.762Z,1580.00
2018-01-10T10:26:04.744Z,1620.00
2018-01-10T10:27:04.732Z,1600.00
2018-01-10T10:28:04.712Z,1528.00
2018-01-10T10:29:04.689Z,1492.00
2018-01-10T10:30:04.677Z,1480.00
2018-01-10T10:31:04.655Z,1464.00
2018-01-10T10:32:04.628Z,1460.00
2018-01-10T10:33:04.612Z,1556.00
2018-01-10T10:34:04.594Z,1744.00
2018-01-10T10:35:04.570Z,1968.00
2018-01-10T10:36:04.551Z,2168.00
2018-01-10T10:37:04.530Z,2328.00
2018-01-10T10:38:04.511Z,2436.00
2018-01-10T10:39:04.492Z,2440.00
2018-01-10T10:40:04.474Z,2348.00
2018-01-10T10:41:04.452Z,2308.00
2018-01-10T10:42:04.435Z,2188.00
2018-01-10T10:43:04.424Z,1980.00
2018-01-10T10:44:04.397Z,1800.00
2018-01-10T10:45:04.382Z,1640.00
2018-01-10T10:46:04.359Z,1500.00
2018-01-10T10:47:04.340Z,1400.00
2018-01-10T10:48:04.322Z,1300.00
2018-01-10T10:49:04.301Z,1236.00
2018-01-10T10:50:04.288Z,1176.00
2018-01-10T10:51:04.265Z,1124.00
2018-01-10T10:52:04.248Z,1072.00
2018-01-10T10:53:04.225Z,1024.00
2018-01-10T10:54:04.205Z,984.00
2018-01-10T10:55:04.191Z,956.00
2018-01-10T10:56:04.173Z,940.00
2018-01-10T10:57:04.148Z,904.00
2018-01-10T10:58:04.131Z,864.00
2018-01-10T10:59:04.111Z,844.00
2018-01-10T11:00:04.091Z,852.00
2018-01-10T11:01:04.070Z,852.00
2018-01-10T11:02:04.053Z,828.00
2018-01-10T11:03:04.043Z,800.00
2018-01-10T11:04:04.014Z,780.00
2018-01-10T11:05:03.995Z,756.00
2018-01-10T11:06:03.982Z,732.00
2018-01-10T11:07:03.955Z,708.00
2018-01-10T11:08:03.941Z,696.00
2018-01-10T11:09:03.920Z,700.00
2018-01-10T11:10:03.902Z,736.00
2018-01-10T11:11:03.881Z,776.00
2018-01-10T11:12:03.862Z,832.00
2018-01-10T11:13:03.841Z,888.00
2018-01-10T11:14:03.822Z,932.00
2018-01-10T11:15:03.806Z,960.00
2018-01-10T11:16:03.783Z,1016.00
2018-01-10T11:17:03.766Z,1104.00
2018-01-10T11:18:03.747Z,1180.00
2018-01-10T11:19:03.728Z,1292.00
2018-01-10T11:20:03.710Z,1396.00
2018-01-10T11:21:03.690Z,1448.00
2018-01-10T11:22:03.675Z,1484.00
2018-01-10T11:23:03.657Z,1452.00
2018-01-10T11:24:03.640Z,1372.00
2018-01-10T11:25:03.618Z,1296.00
2018-01-10T11:26:03.603Z,1280.00
2018-01-10T11:27:03.610Z,1304.00
2018-01-10T11:28:03.565Z,1396.00
2018-01-10T11:29:03.553Z,1592.00
2018-01-10T11:30:03.523Z,1900.00
2018-01-10T11:31:03.501Z,1956.00
2018-01-10T11:32:03.486Z,2144.00
2018-01-10T11:33:03.467Z,2276.00
2018-01-10T11:34:03.455Z,2372.00
2018-01-10T11:35:03.436Z,2396.00
2018-01-10T11:36:03.410Z,2404.00
2018-01-10T11:37:03.402Z,2364.00
2018-01-10T11:38:03.370Z,2364.00
2018-01-10T11:39:03.362Z,2396.00
2018-01-10T11:40:03.336Z,2376.00
2018-01-10T11:41:03.322Z,2280.00
2018-01-10T11:42:03.299Z,2236.00
2018-01-10T11:43:03.280Z,2212.00
2018-01-10T11:44:03.259Z,2196.00
2018-01-10T11:45:03.251Z,2248.00
2018-01-10T11:46:03.328Z,2404.00
2018-01-10T11:47:03.209Z,2580.00
2018-01-10T11:48:03.193Z,2724.00
2018-01-10T11:49:03.169Z,2824.00
2018-01-10T11:50:03.163Z,2992.00
2018-01-10T11:51:03.136Z,3108.00
2018-01-10T11:52:03.120Z,3108.00
2018-01-10T11:53:03.101Z,3648.00
2018-01-10T11:55:03.061Z,3220.00
2018-01-10T11:56:03.046Z,3300.00
2018-01-10T11:57:03.031Z,3364.00
2018-01-10T11:58:03.011Z,3388.00
2018-01-10T11:59:02.995Z,3548.00
2018-01-10T12:00:02.974Z,3744.00
2018-01-10T12:01:02.957Z,3804.00
2018-01-10T12:02:02.949Z,3756.00
2018-01-10T12:03:02.929Z,3712.00
2018-01-10T12:04:02.906Z,3712.00
2018-01-10T12:05:02.890Z,3760.00
2018-01-10T12:06:02.871Z,3852.00
2018-01-10T12:07:02.861Z,3832.00
2018-01-10T12:08:02.840Z,4340.00
2018-01-10T12:09:02.822Z,3812.00
2018-01-10T12:10:02.802Z,3612.00
2018-01-10T12:11:02.793Z,3464.00
2018-01-10T12:12:02.768Z,3344.00
2018-01-10T12:13:02.750Z,3240.00
2018-01-10T12:14:02.741Z,3140.00
2018-01-10T12:15:02.713Z,3060.00
2018-01-10T12:16:02.699Z,2932.00
2018-01-10T12:17:02.681Z,2832.00
2018-01-10T12:18:02.665Z,2764.00
2018-01-10T12:19:02.654Z,2728.00
2018-01-10T12:20:02.631Z,2788.00
2018-01-10T12:21:02.620Z,2952.00
2018-01-10T12:22:02.603Z,3308.00
2018-01-10T12:23:02.580Z,4256.00
2018-01-10T12:24:02.576Z,5936.00
2018-01-10T12:25:02.551Z,4968.00
2018-01-10T12:26:02.533Z,4760.00
2018-01-10T12:27:02.517Z,4212.00
2018-01-10T12:28:02.506Z,4388.00
2018-01-10T12:29:02.489Z,4860.00
2018-01-10T12:30:02.481Z,5048.00
2018-01-10T12:31:02.454Z,5352.00
2018-01-10T12:32:02.433Z,5152.00
2018-01-10T12:33:02.413Z,5848.00
2018-01-10T12:34:02.403Z,6184.00
2018-01-10T12:35:02.384Z,8544.00
2018-01-10T12:36:02.370Z,8204.00
2018-01-10T12:37:02.429Z,7836.00
2018-01-10T12:38:02.342Z,8056.00
2018-01-10T12:39:02.331Z,7268.00
2018-01-10T12:40:02.312Z,5528.00
2018-01-10T12:41:02.300Z,6108.00
2018-01-10T12:42:02.281Z,6156.00
2018-01-10T12:43:02.268Z,7052.00
2018-01-10T12:44:02.262Z,6324.00
2018-01-10T12:45:02.242Z,6672.00
2018-01-10T12:46:02.233Z,6364.00
2018-01-10T12:47:02.220Z,6048.00
2018-01-10T12:48:02.192Z,5756.00
2018-01-10T12:49:02.179Z,5636.00
2018-01-10T12:50:02.164Z,5316.00
2018-01-10T12:51:02.150Z,4572.00
2018-01-10T12:52:02.139Z,3208.00